Time;durP1;ratioP1;P1;durP2;ratioP2;P2;SDS_P1;SDS_P2;PMS_P1;PMS_P2;Temp;Humidity;BMP_temperature;BMP_pressure;BME280_temperature;BME280_humidity;BME280_pressure;Samples;Min_cycle;Max_cycle;Signal;HPM_P1;HPM_P2
2022/12/02 00:01:27;;;;;;;31.58;18.30;;;;;;;;;;4991748;28;20493;-65
2022/12/02 00:03:55;;;;;;;27.98;17.10;;;;;;;;;;4990953;28;20050;-66
2022/12/02 00:06:28;;;;;;;32.72;18.02;;;;;;;;;;4974444;28;20510;-65
2022/12/02 00:09:21;;;;;;;29.23;16.63;;;;;;;;;;4975193;28;20504;-66
2022/12/02 00:11:47;;;;;;;29.75;17.35;;;;;;;;;;4988676;28;20070;-67
2022/12/02 00:14:28;;;;;;;28.73;17.60;;;;;;;;;;4991958;28;20050;-68
2022/12/02 00:16:55;;;;;;;29.58;17.85;;;;;;;;;;4990672;28;20055;-67
2022/12/02 00:19:22;;;;;;;27.40;16.15;;;;;;;;;;4990885;28;20051;-66
2022/12/02 00:21:50;;;;;;;28.67;16.77;;;;;;;;;;4990425;28;20134;-66
2022/12/02 00:24:17;;;;;;;28.88;17.35;;;;;;;;;;4990938;28;20082;-65
2022/12/02 00:26:44;;;;;;;27.90;17.65;;;;;;;;;;4974680;28;20054;-67
2022/12/02 00:29:11;;;;;;;30.40;17.90;;;;;;;;;;4971177;28;20082;-66
2022/12/02 00:31:37;;;;;;;31.55;17.92;;;;;;;;;;4955114;28;20090;-67
2022/12/02 00:34:04;;;;;;;28.65;17.38;;;;;;;;;;4973541;28;20510;-65
2022/12/02 00:36:31;;;;;;;29.58;18.13;;;;;;;;;;4975967;28;20086;-66
2022/12/02 00:38:58;;;;;;;30.70;18.00;;;;;;;;;;4943295;28;20090;-65
2022/12/02 00:41:25;;;;;;;31.15;18.45;;;;;;;;;;4976316;28;20075;-66
2022/12/02 00:46:36;;;;;;;26.63;16.33;;;;;;;;;;4974572;28;20086;-66
2022/12/02 00:49:14;;;;;;;30.77;18.65;;;;;;;;;;4975764;28;20051;-67
2022/12/02 00:51:42;;;;;;;28.05;16.70;;;;;;;;;;4958589;28;20050;-65
2022/12/02 00:54:09;;;;;;;26.90;17.02;;;;;;;;;;4972019;28;20061;-66
2022/12/02 00:56:35;;;;;;;31.33;18.30;;;;;;;;;;4977666;28;20053;-67
2022/12/02 00:59:03;;;;;;;28.35;17.67;;;;;;;;;;4994492;28;20085;-68
2022/12/02 01:01:30;;;;;;;29.27;18.58;;;;;;;;;;4993639;28;20042;-67
2022/12/02 01:03:57;;;;;;;31.40;18.33;;;;;;;;;;4993838;28;20517;-66
2022/12/02 01:06:23;;;;;;;31.70;18.63;;;;;;;;;;4977812;28;20063;-66
2022/12/02 01:08:50;;;;;;;27.75;17.10;;;;;;;;;;4994894;28;20088;-66
2022/12/02 01:11:17;;;;;;;31.90;18.65;;;;;;;;;;4993661;28;20490;-66
2022/12/02 01:13:44;;;;;;;33.47;17.77;;;;;;;;;;4977675;28;20086;-67
2022/12/02 01:16:10;;;;;;;29.27;17.50;;;;;;;;;;4994530;28;20055;-66
2022/12/02 01:18:37;;;;;;;29.65;17.13;;;;;;;;;;4980850;28;20065;-66
2022/12/02 01:21:04;;;;;;;29.15;17.30;;;;;;;;;;4975100;28;20042;-67
2022/12/02 01:23:30;;;;;;;27.42;17.67;;;;;;;;;;4974089;28;20497;-65
2022/12/02 01:25:57;;;;;;;27.27;17.52;;;;;;;;;;4974164;28;20055;-65
2022/12/02 01:28:24;;;;;;;32.03;17.27;;;;;;;;;;4973826;28;20179;-65
2022/12/02 01:30:51;;;;;;;28.42;17.23;;;;;;;;;;4975691;28;20051;-66
2022/12/02 01:33:17;;;;;;;30.30;17.48;;;;;;;;;;4974818;28;20113;-67
2022/12/02 01:35:44;;;;;;;30.33;18.20;;;;;;;;;;4975221;28;20133;-66
2022/12/02 01:38:10;;;;;;;27.35;17.05;;;;;;;;;;4974861;28;20134;-66
2022/12/02 01:40:37;;;;;;;26.75;16.65;;;;;;;;;;4974853;28;20082;-66
2022/12/02 01:43:04;;;;;;;25.80;16.55;;;;;;;;;;4974759;28;20050;-66
2022/12/02 01:45:30;;;;;;;27.58;16.33;;;;;;;;;;4973857;28;20055;-66
2022/12/02 01:48:01;;;;;;;32.50;18.65;;;;;;;;;;4974641;28;20077;-66
2022/12/02 01:50:28;;;;;;;32.92;18.42;;;;;;;;;;4957912;28;20054;-66
2022/12/02 01:52:55;;;;;;;30.42;17.48;;;;;;;;;;4973045;28;20498;-66
2022/12/02 01:55:25;;;;;;;29.92;17.85;;;;;;;;;;4993406;28;20050;-66
2022/12/02 01:57:51;;;;;;;29.60;16.50;;;;;;;;;;4976426;28;20093;-67
2022/12/02 02:00:18;;;;;;;29.83;16.98;;;;;;;;;;4992554;28;20501;-66
2022/12/02 02:02:45;;;;;;;30.15;17.15;;;;;;;;;;4993731;28;20452;-67
2022/12/02 02:05:24;;;;;;;32.45;18.42;;;;;;;;;;4976369;28;20478;-67
2022/12/02 02:07:56;;;;;;;28.35;16.75;;;;;;;;;;4977818;28;20513;-67
2022/12/02 02:10:24;;;;;;;30.00;18.23;;;;;;;;;;4960616;28;20489;-68
2022/12/02 02:12:51;;;;;;;29.25;17.17;;;;;;;;;;4992201;28;20054;-67
2022/12/02 02:15:18;;;;;;;30.58;18.38;;;;;;;;;;4976165;28;20085;-67
2022/12/02 02:17:45;;;;;;;30.10;17.48;;;;;;;;;;4992185;28;20081;-68
2022/12/02 02:20:15;;;;;;;32.85;18.95;;;;;;;;;;4972799;28;20429;-67
2022/12/02 02:23:04;;;;;;;31.33;17.90;;;;;;;;;;4957327;28;20046;-67
2022/12/02 02:25:45;;;;;;;30.27;17.00;;;;;;;;;;4973672;28;20138;-67
2022/12/02 02:28:12;;;;;;;32.47;17.90;;;;;;;;;;4958358;28;20528;-67
2022/12/02 02:30:38;;;;;;;28.17;17.23;;;;;;;;;;4956467;28;20557;-67
2022/12/02 02:33:07;;;;;;;28.35;17.52;;;;;;;;;;4956619;28;20417;-67
2022/12/02 02:35:35;;;;;;;31.00;18.63;;;;;;;;;;4972669;28;20101;-67
2022/12/02 02:38:02;;;;;;;27.92;16.63;;;;;;;;;;4956782;28;20130;-67
2022/12/02 02:40:29;;;;;;;29.83;17.02;;;;;;;;;;4956104;28;20113;-67
2022/12/02 02:42:59;;;;;;;31.25;18.15;;;;;;;;;;4956394;28;20556;-67
2022/12/02 02:45:27;;;;;;;31.65;17.15;;;;;;;;;;4972309;28;20050;-67
2022/12/02 02:47:54;;;;;;;30.38;18.30;;;;;;;;;;4972317;28;20051;-68
2022/12/02 02:50:21;;;;;;;33.10;17.88;;;;;;;;;;4956362;28;20121;-67
2022/12/02 02:52:48;;;;;;;29.02;17.73;;;;;;;;;;4972039;28;20124;-67
2022/12/02 02:55:21;;;;;;;34.53;18.23;;;;;;;;;;4972326;28;20113;-67
2022/12/02 02:57:48;;;;;;;;;;;;;;;;;;4978748;28;20100;-68
2022/12/02 03:00:17;;;;;;;27.63;17.08;;;;;;;;;;4992496;28;20388;-68
2022/12/02 03:02:44;;;;;;;30.73;17.42;;;;;;;;;;4975666;28;20092;-68
2022/12/02 03:05:11;;;;;;;29.05;17.20;;;;;;;;;;4991442;28;20052;-68
2022/12/02 03:07:37;;;;;;;29.55;17.52;;;;;;;;;;4975128;28;20078;-68
2022/12/02 03:10:05;;;;;;;28.65;16.15;;;;;;;;;;4991697;28;20050;-67
2022/12/02 03:12:31;;;;;;;30.20;16.98;;;;;;;;;;4975315;28;20116;-67
2022/12/02 03:14:58;;;;;;;30.92;17.58;;;;;;;;;;5007651;28;20112;-67
2022/12/02 03:17:25;;;;;;;29.45;17.75;;;;;;;;;;4975038;28;20050;-67
2022/12/02 03:19:52;;;;;;;28.30;16.90;;;;;;;;;;4992673;28;20050;-67
2022/12/02 03:22:19;;;;;;;27.65;15.85;;;;;;;;;;4991033;28;20410;-68
2022/12/02 03:24:46;;;;;;;32.58;18.08;;;;;;;;;;4991557;28;20472;-67
2022/12/02 03:27:13;;;;;;;27.42;16.65;;;;;;;;;;4991490;28;20057;-67
2022/12/02 03:29:39;;;;;;;33.40;19.05;;;;;;;;;;4991235;28;20117;-67
2022/12/02 03:32:09;;;;;;;29.92;16.92;;;;;;;;;;4991074;28;20046;-67
2022/12/02 03:34:36;;;;;;;29.38;16.83;;;;;;;;;;4991358;28;20054;-67
2022/12/02 03:37:02;;;;;;;30.35;17.27;;;;;;;;;;4991145;28;20421;-67
2022/12/02 03:39:29;;;;;;;29.58;16.23;;;;;;;;;;4975484;28;20093;-67
2022/12/02 03:41:56;;;;;;;28.27;16.40;;;;;;;;;;4974910;28;20485;-67
2022/12/02 03:44:23;;;;;;;28.88;17.08;;;;;;;;;;4992365;28;20058;-67
2022/12/02 03:46:50;;;;;;;29.58;17.65;;;;;;;;;;4959129;28;20050;-67
2022/12/02 03:49:16;;;;;;;32.05;17.65;;;;;;;;;;4974713;28;20047;-67
2022/12/02 03:51:43;;;;;;;28.48;16.65;;;;;;;;;;4991048;28;20100;-68
2022/12/02 03:54:10;;;;;;;30.00;17.25;;;;;;;;;;4992339;28;20452;-67
2022/12/02 03:56:38;;;;;;;30.52;16.73;;;;;;;;;;4975148;28;20104;-67
2022/12/02 03:59:04;;;;;;;30.85;16.70;;;;;;;;;;4971150;28;20055;-67
2022/12/02 04:01:31;;;;;;;32.72;17.05;;;;;;;;;;4971214;28;20425;-67
2022/12/02 04:03:58;;;;;;;31.55;16.92;;;;;;;;;;4972813;28;20050;-67
2022/12/02 04:06:24;;;;;;;28.00;16.02;;;;;;;;;;4972569;28;20055;-67
2022/12/02 04:08:51;;;;;;;25.83;15.35;;;;;;;;;;4973415;28;20487;-67
2022/12/02 04:11:18;;;;;;;30.33;17.23;;;;;;;;;;4975089;28;20090;-68
2022/12/02 04:13:44;;;;;;;32.33;17.92;;;;;;;;;;4976028;28;20497;-67
2022/12/02 04:16:11;;;;;;;28.50;16.92;;;;;;;;;;4974785;28;20462;-68
2022/12/02 04:18:37;;;;;;;28.08;16.17;;;;;;;;;;5031214;23;20038;-65
2022/12/02 04:21:04;;;;;;;31.77;17.13;;;;;;;;;;5034911;28;20496;-66
2022/12/02 04:23:31;;;;;;;30.15;16.90;;;;;;;;;;5035420;28;20053;-66
2022/12/02 04:25:58;;;;;;;30.38;16.27;;;;;;;;;;5034990;28;20558;-67
2022/12/02 04:28:24;;;;;;;29.40;16.77;;;;;;;;;;5016817;28;20050;-66
2022/12/02 04:30:51;;;;;;;28.48;16.60;;;;;;;;;;4995615;28;20057;-67
2022/12/02 04:33:18;;;;;;;28.60;16.85;;;;;;;;;;4995953;28;20060;-67
2022/12/02 04:35:44;;;;;;;29.73;17.00;;;;;;;;;;4995835;28;20476;-66
2022/12/02 04:38:11;;;;;;;30.38;16.13;;;;;;;;;;4995670;28;20072;-67
2022/12/02 04:40:38;;;;;;;28.80;16.60;;;;;;;;;;4995741;28;20054;-67
2022/12/02 04:43:05;;;;;;;29.33;16.63;;;;;;;;;;4995423;28;20046;-67
2022/12/02 04:45:32;;;;;;;28.65;16.67;;;;;;;;;;4995282;28;20599;-67
2022/12/02 04:47:58;;;;;;;27.65;16.92;;;;;;;;;;4995926;28;20047;-66
2022/12/02 04:50:25;;;;;;;34.28;17.17;;;;;;;;;;4995348;28;20101;-66
2022/12/02 04:52:52;;;;;;;28.10;16.00;;;;;;;;;;4995295;28;20513;-66
2022/12/02 04:55:18;;;;;;;26.83;15.73;;;;;;;;;;4995131;28;20054;-67
2022/12/02 04:57:45;;;;;;;28.88;16.92;;;;;;;;;;4996786;28;20050;-66
2022/12/02 05:00:12;;;;;;;28.67;16.35;;;;;;;;;;5014660;28;20103;-66
2022/12/02 05:02:38;;;;;;;27.42;15.73;;;;;;;;;;5014736;28;20640;-65
2022/12/02 05:05:06;;;;;;;29.50;16.73;;;;;;;;;;5014588;28;20045;-67
2022/12/02 05:07:32;;;;;;;28.50;15.82;;;;;;;;;;5014839;28;20062;-67
2022/12/02 05:09:59;;;;;;;31.60;17.27;;;;;;;;;;5017168;28;20072;-65
2022/12/02 05:12:26;;;;;;;31.27;17.17;;;;;;;;;;5021326;28;20069;-67
2022/12/02 05:14:52;;;;;;;31.67;17.35;;;;;;;;;;5023002;28;20054;-67
2022/12/02 05:17:19;;;;;;;30.95;17.27;;;;;;;;;;5022789;28;20034;-65
2022/12/02 05:19:46;;;;;;;30.02;17.75;;;;;;;;;;5016940;28;20054;-65
2022/12/02 05:22:13;;;;;;;28.23;16.88;;;;;;;;;;5015297;28;20046;-66
2022/12/02 05:24:40;;;;;;;31.15;18.55;;;;;;;;;;5014986;28;20082;-65
2022/12/02 05:27:06;;;;;;;30.50;17.80;;;;;;;;;;5024071;28;20046;-66
2022/12/02 05:29:33;;;;;;;32.40;18.75;;;;;;;;;;5036547;28;20058;-65
2022/12/02 05:31:59;;;;;;;34.15;19.80;;;;;;;;;;5036311;28;20042;-65
2022/12/02 05:34:26;;;;;;;31.23;18.48;;;;;;;;;;5048113;28;20075;-66
2022/12/02 05:36:53;;;;;;;32.20;17.52;;;;;;;;;;5029949;28;20077;-65
2022/12/02 05:39:19;;;;;;;32.58;18.80;;;;;;;;;;5016021;28;20057;-64
2022/12/02 05:41:46;;;;;;;35.97;19.80;;;;;;;;;;5020719;28;20081;-65
2022/12/02 05:44:24;;;;;;;35.33;18.73;;;;;;;;;;5035816;28;20125;-63
2022/12/02 05:46:50;;;;;;;34.42;18.92;;;;;;;;;;5031654;28;20054;-65
2022/12/02 05:49:22;;;;;;;37.10;19.38;;;;;;;;;;5012328;28;20073;-67
2022/12/02 05:51:58;;;;;;;37.25;19.42;;;;;;;;;;5040036;28;20113;-65
2022/12/02 05:54:26;;;;;;;33.97;18.98;;;;;;;;;;5054722;28;20049;-65
2022/12/02 05:56:53;;;;;;;33.83;19.27;;;;;;;;;;5029534;28;20060;-68
2022/12/02 05:59:20;;;;;;;39.17;19.92;;;;;;;;;;5014391;28;20054;-68
2022/12/02 06:01:49;;;;;;;39.85;19.95;;;;;;;;;;5013588;28;20092;-67
2022/12/02 06:04:25;;;;;;;39.15;19.85;;;;;;;;;;5014959;28;20085;-67
2022/12/02 06:06:52;;;;;;;35.85;19.90;;;;;;;;;;5014194;28;20050;-68
2022/12/02 06:09:24;;;;;;;38.88;20.63;;;;;;;;;;5013163;28;20509;-68
2022/12/02 06:11:51;;;;;;;38.25;19.67;;;;;;;;;;5014303;28;20100;-67
2022/12/02 06:14:21;;;;;;;44.00;21.58;;;;;;;;;;5013099;28;20104;-68
2022/12/02 06:16:50;;;;;;;41.97;21.20;;;;;;;;;;5014078;28;20471;-67
2022/12/02 06:19:21;;;;;;;42.60;21.75;;;;;;;;;;5018921;28;20432;-68
2022/12/02 06:21:48;;;;;;;39.38;20.42;;;;;;;;;;5013550;28;20042;-67
2022/12/02 06:24:15;;;;;;;46.42;22.42;;;;;;;;;;5013928;28;20057;-67
2022/12/02 06:26:41;;;;;;;40.63;21.05;;;;;;;;;;5012580;28;20049;-68
2022/12/02 06:29:08;;;;;;;42.65;21.13;;;;;;;;;;5013386;28;20045;-67
2022/12/02 06:31:36;;;;;;;39.28;20.98;;;;;;;;;;4997124;28;20054;-68
2022/12/02 06:34:31;;;;;;;41.95;21.25;;;;;;;;;;4992823;28;20047;-68
2022/12/02 06:36:58;;;;;;;44.50;20.35;;;;;;;;;;4991392;28;20081;-65
2022/12/02 06:39:25;;;;;;;41.30;20.65;;;;;;;;;;4990372;28;20050;-66
2022/12/02 06:41:52;;;;;;;46.97;23.25;;;;;;;;;;5008363;28;20104;-66
2022/12/02 06:47:36;;;;;;;40.22;21.02;;;;;;;;;;5010510;28;20077;-66
2022/12/02 06:50:06;;;;;;;50.40;22.08;;;;;;;;;;5010320;28;20401;-66
2022/12/02 06:52:43;;;;;;;45.33;22.13;;;;;;;;;;5010891;28;20072;-67
2022/12/02 06:55:32;;;;;;;60.90;26.77;;;;;;;;;;5009480;28;20050;-67
2022/12/02 06:58:35;;;;;;;54.80;26.20;;;;;;;;;;5009878;28;20050;-67
2022/12/02 07:01:27;;;;;;;53.72;25.88;;;;;;;;;;4991428;28;20054;-67
2022/12/02 07:04:01;;;;;;;53.20;25.25;;;;;;;;;;4989529;28;20108;-66
2022/12/02 07:06:29;;;;;;;50.58;25.13;;;;;;;;;;4993513;28;20050;-67
2022/12/02 07:09:02;;;;;;;41.28;23.73;;;;;;;;;;5008000;28;20116;-67
2022/12/02 07:11:49;;;;;;;44.15;22.95;;;;;;;;;;5007763;28;20046;-66
2022/12/02 07:14:32;;;;;;;41.78;22.08;;;;;;;;;;4989387;28;20062;-67
2022/12/02 07:17:00;;;;;;;42.95;23.10;;;;;;;;;;4993148;28;20041;-67
2022/12/02 07:19:47;;;;;;;49.35;23.83;;;;;;;;;;5010218;28;20053;-66
2022/12/02 07:22:15;;;;;;;43.50;23.05;;;;;;;;;;5009269;28;20103;-67
2022/12/02 07:24:42;;;;;;;42.83;22.17;;;;;;;;;;5025569;28;20089;-66
2022/12/02 07:27:32;;;;;;;44.35;22.52;;;;;;;;;;5025954;28;20054;-67
2022/12/02 07:29:59;;;;;;;43.72;21.27;;;;;;;;;;5003555;28;20058;-67
2022/12/02 07:32:26;;;;;;;41.15;20.10;;;;;;;;;;4991340;28;20526;-67
2022/12/02 07:34:52;;;;;;;42.83;22.23;;;;;;;;;;4990786;28;20505;-67
2022/12/02 07:37:19;;;;;;;40.42;20.85;;;;;;;;;;4991703;28;20128;-67
2022/12/02 07:39:46;;;;;;;37.85;21.27;;;;;;;;;;4992091;28;20497;-68
2022/12/02 07:42:13;;;;;;;41.75;22.48;;;;;;;;;;4996242;28;20105;-64
2022/12/02 07:44:40;;;;;;;41.58;21.67;;;;;;;;;;5013646;28;20108;-69
2022/12/02 07:47:07;;;;;;;45.28;23.10;;;;;;;;;;5020170;28;20050;-69
2022/12/02 07:49:33;;;;;;;42.20;22.08;;;;;;;;;;5016867;28;20108;-66
2022/12/02 07:52:00;;;;;;;46.13;22.27;;;;;;;;;;5016236;28;20497;-67
2022/12/02 07:54:26;;;;;;;41.50;22.45;;;;;;;;;;5013646;28;20058;-69
2022/12/02 07:56:53;;;;;;;43.53;22.13;;;;;;;;;;4996741;28;20494;-75
2022/12/02 07:59:20;;;;;;;42.05;22.13;;;;;;;;;;4996781;28;20054;-73
2022/12/02 08:01:46;;;;;;;41.30;22.73;;;;;;;;;;4996511;28;20050;-74
2022/12/02 08:04:13;;;;;;;39.92;22.23;;;;;;;;;;4996696;28;20464;-70
2022/12/02 08:06:40;;;;;;;44.42;22.20;;;;;;;;;;5010265;28;20463;-69
2022/12/02 08:09:08;;;;;;;43.35;21.77;;;;;;;;;;5015944;28;20108;-70
2022/12/02 08:11:35;;;;;;;45.40;21.77;;;;;;;;;;5014592;28;20057;-70
2022/12/02 08:14:01;;;;;;;42.92;22.08;;;;;;;;;;5015863;28;20411;-72
2022/12/02 08:16:28;;;;;;;43.97;21.85;;;;;;;;;;4998827;28;20504;-68
2022/12/02 08:18:55;;;;;;;40.92;22.05;;;;;;;;;;5015202;28;20057;-69
2022/12/02 08:21:22;;;;;;;42.38;23.75;;;;;;;;;;5015448;28;20050;-66
2022/12/02 08:23:48;;;;;;;45.53;23.40;;;;;;;;;;5015081;28;20054;-66
2022/12/02 08:26:15;;;;;;;43.95;23.05;;;;;;;;;;5013135;28;20058;-67
2022/12/02 08:28:42;;;;;;;52.30;24.50;;;;;;;;;;5011031;28;20058;-75
2022/12/02 08:31:09;;;;;;;42.38;22.90;;;;;;;;;;5009160;28;20050;-72
2022/12/02 08:33:35;;;;;;;46.28;22.65;;;;;;;;;;5025112;28;20271;-74
2022/12/02 08:36:03;;;;;;;42.70;24.30;;;;;;;;;;5011340;28;20493;-72
2022/12/02 08:38:29;;;;;;;49.22;24.15;;;;;;;;;;5006154;28;20046;-77
2022/12/02 08:40:56;;;;;;;44.97;22.02;;;;;;;;;;5012968;28;20508;-70
2022/12/02 08:43:23;;;;;;;44.67;22.50;;;;;;;;;;5009100;28;20492;-68
2022/12/02 08:45:49;;;;;;;44.38;22.60;;;;;;;;;;5007151;28;20092;-68
2022/12/02 08:48:16;;;;;;;44.10;22.38;;;;;;;;;;5007546;28;20045;-74
2022/12/02 08:50:43;;;;;;;45.53;24.38;;;;;;;;;;5007293;28;20428;-74
2022/12/02 08:53:10;;;;;;;46.22;24.80;;;;;;;;;;5012351;28;20559;-69
2022/12/02 08:55:37;;;;;;;46.58;23.33;;;;;;;;;;5013757;28;20401;-69
2022/12/02 08:58:06;;;;;;;40.92;22.10;;;;;;;;;;5012421;28;20096;-67
2022/12/02 09:00:38;;;;;;;39.65;22.23;;;;;;;;;;5027949;28;20112;-68
2022/12/02 09:03:06;;;;;;;38.85;19.75;;;;;;;;;;5012532;28;20053;-68
2022/12/02 09:05:33;;;;;;;39.78;20.75;;;;;;;;;;5011520;28;20088;-66
2022/12/02 09:08:01;;;;;;;43.22;21.17;;;;;;;;;;5011573;28;20136;-65
2022/12/02 09:10:27;;;;;;;40.88;21.05;;;;;;;;;;5012743;28;20456;-65
2022/12/02 09:12:54;;;;;;;38.17;20.25;;;;;;;;;;5011839;28;20042;-69
2022/12/02 09:15:21;;;;;;;37.50;20.80;;;;;;;;;;5008305;28;20053;-69
2022/12/02 09:17:48;;;;;;;38.40;19.60;;;;;;;;;;5012593;28;20050;-70
2022/12/02 09:20:16;;;;;;;38.80;20.67;;;;;;;;;;5011876;28;20057;-71
2022/12/02 09:22:44;;;;;;;41.25;20.08;;;;;;;;;;5010548;28;20050;-68
2022/12/02 09:25:12;;;;;;;36.53;19.52;;;;;;;;;;5011781;28;20069;-68
2022/12/02 09:27:39;;;;;;;35.13;19.77;;;;;;;;;;5013010;28;20535;-71
2022/12/02 09:30:06;;;;;;;36.67;20.25;;;;;;;;;;5012172;28;20045;-64
2022/12/02 09:32:33;;;;;;;31.60;16.70;;;;;;;;;;5013221;28;20488;-64
2022/12/02 09:35:00;;;;;;;33.20;18.20;;;;;;;;;;5011678;28;20070;-64
2022/12/02 09:37:27;;;;;;;37.75;18.48;;;;;;;;;;5012468;28;20476;-62
2022/12/02 09:39:53;;;;;;;37.90;18.65;;;;;;;;;;5012392;28;20061;-64
2022/12/02 09:42:20;;;;;;;35.38;19.33;;;;;;;;;;5010656;28;20045;-65
2022/12/02 09:44:48;;;;;;;31.73;17.90;;;;;;;;;;5012283;28;20049;-65
2022/12/02 09:47:16;;;;;;;33.40;18.75;;;;;;;;;;5026525;28;20049;-63
2022/12/02 09:49:43;;;;;;;33.40;17.75;;;;;;;;;;5011104;28;20089;-64
2022/12/02 09:52:14;;;;;;;31.50;17.30;;;;;;;;;;5010855;28;20046;-65
2022/12/02 09:54:45;;;;;;;36.88;19.17;;;;;;;;;;5024203;28;20054;-65
2022/12/02 09:57:13;;;;;;;29.88;17.67;;;;;;;;;;5011117;28;20559;-64
2022/12/02 09:59:40;;;;;;;31.77;18.67;;;;;;;;;;5027470;28;20058;-64
2022/12/02 10:02:29;;;;;;;29.70;17.80;;;;;;;;;;5011816;28;20104;-65
2022/12/02 10:04:58;;;;;;;28.23;16.63;;;;;;;;;;5000528;28;20053;-66
2022/12/02 10:07:24;;;;;;;29.40;16.20;;;;;;;;;;5026622;28;20562;-65
2022/12/02 10:09:51;;;;;;;31.00;16.90;;;;;;;;;;5012748;28;20042;-65
2022/12/02 10:12:18;;;;;;;26.23;14.88;;;;;;;;;;5008574;28;20077;-66
2022/12/02 10:14:47;;;;;;;26.65;14.52;;;;;;;;;;5009928;28;20200;-64
2022/12/02 10:17:16;;;;;;;22.85;13.98;;;;;;;;;;5025957;28;20104;-65
2022/12/02 10:19:43;;;;;;;23.50;14.35;;;;;;;;;;5011981;28;20555;-64
2022/12/02 10:22:20;;;;;;;29.15;15.25;;;;;;;;;;5026723;28;20050;-63
2022/12/02 10:24:47;;;;;;;25.55;15.82;;;;;;;;;;5024539;28;20490;-63
2022/12/02 10:27:31;;;;;;;31.08;16.83;;;;;;;;;;5010011;28;20133;-62
2022/12/02 10:30:17;;;;;;;31.35;17.17;;;;;;;;;;5004840;28;20041;-66
2022/12/02 10:33:04;;;;;;;25.17;14.52;;;;;;;;;;5008647;28;20493;-72
2022/12/02 10:35:49;;;;;;;24.38;13.75;;;;;;;;;;5007588;28;20054;-70
2022/12/02 10:38:29;;;;;;;23.80;13.02;;;;;;;;;;5011454;28;20050;-71
2022/12/02 10:41:14;;;;;;;22.42;12.70;;;;;;;;;;5009607;28;20046;-71
2022/12/02 10:44:02;;;;;;;21.23;13.07;;;;;;;;;;5013644;28;20544;-74
2022/12/02 10:46:29;;;;;;;21.83;13.60;;;;;;;;;;5023485;28;20046;-70
2022/12/02 10:49:14;;;;;;;21.90;12.50;;;;;;;;;;5025966;28;20056;-68
2022/12/02 10:51:41;;;;;;;20.25;12.93;;;;;;;;;;5022835;28;20050;-69
2022/12/02 10:54:27;;;;;;;20.05;13.82;;;;;;;;;;5010072;28;20050;-73
2022/12/02 10:56:55;;;;;;;22.40;13.38;;;;;;;;;;5022532;28;20060;-69
2022/12/02 10:59:22;;;;;;;25.02;14.75;;;;;;;;;;5011993;28;20116;-71
2022/12/02 11:01:48;;;;;;;22.42;14.73;;;;;;;;;;5011324;28;20045;-71
2022/12/02 11:04:15;;;;;;;24.17;15.05;;;;;;;;;;5009028;28;20049;-69
2022/12/02 11:06:42;;;;;;;24.70;14.15;;;;;;;;;;5010984;28;20501;-68
2022/12/02 11:09:17;;;;;;;27.52;14.13;;;;;;;;;;5026081;28;20069;-73
2022/12/02 11:12:33;;;;;;;24.65;14.05;;;;;;;;;;5021628;28;20141;-72
2022/12/02 11:15:01;;;;;;;21.70;13.07;;;;;;;;;;5006635;28;20047;-70
2022/12/02 11:17:47;;;;;;;21.17;12.15;;;;;;;;;;5009757;28;20100;-71
2022/12/02 11:20:33;;;;;;;22.55;13.30;;;;;;;;;;4998097;28;20395;-70
2022/12/02 11:23:00;;;;;;;21.35;13.05;;;;;;;;;;5022066;28;20042;-70
2022/12/02 11:25:47;;;;;;;20.75;12.77;;;;;;;;;;5010797;28;20081;-66
2022/12/02 11:28:17;;;;;;;23.48;13.48;;;;;;;;;;5006561;28;20488;-66
2022/12/02 11:30:45;;;;;;;21.92;13.32;;;;;;;;;;5025440;28;20073;-66
2022/12/02 11:33:12;;;;;;;20.65;12.40;;;;;;;;;;5010574;28;20050;-67
2022/12/02 11:36:07;;;;;;;25.55;15.00;;;;;;;;;;5009646;28;20046;-66
2022/12/02 11:38:57;;;;;;;20.42;13.35;;;;;;;;;;5010393;28;20500;-67
2022/12/02 11:41:26;;;;;;;16.92;10.70;;;;;;;;;;5007919;28;20079;-65
2022/12/02 11:43:52;;;;;;;19.52;11.10;;;;;;;;;;5011670;28;20119;-66
2022/12/02 11:46:38;;;;;;;16.40;10.85;;;;;;;;;;5010249;28;20046;-66
2022/12/02 11:49:22;;;;;;;16.40;10.60;;;;;;;;;;5006680;28;20112;-67
2022/12/02 11:51:49;;;;;;;18.55;11.23;;;;;;;;;;5009722;28;20046;-70
2022/12/02 11:54:17;;;;;;;18.10;11.85;;;;;;;;;;5010015;28;20493;-67
2022/12/02 11:56:45;;;;;;;23.45;12.15;;;;;;;;;;5008664;28;20050;-68
2022/12/02 11:59:20;;;;;;;19.45;13.68;;;;;;;;;;5025308;28;20054;-67
2022/12/02 12:01:47;;;;;;;18.92;11.52;;;;;;;;;;5009136;28;20054;-69
2022/12/02 12:04:25;;;;;;;17.65;11.20;;;;;;;;;;5008816;28;20409;-67
2022/12/02 12:06:56;;;;;;;20.40;11.57;;;;;;;;;;5008128;28;20050;-66
2022/12/02 12:09:24;;;;;;;17.33;10.13;;;;;;;;;;5008710;28;20050;-72
2022/12/02 12:12:11;;;;;;;14.05;9.85;;;;;;;;;;5025715;28;20448;-75
2022/12/02 12:15:01;;;;;;;16.63;10.00;;;;;;;;;;5010447;28;20037;-72
2022/12/02 12:17:30;;;;;;;14.95;10.13;;;;;;;;;;5008792;28;20071;-71
2022/12/02 12:19:57;;;;;;;15.32;10.30;;;;;;;;;;5010473;28;20050;-69
2022/12/02 12:22:29;;;;;;;17.52;10.50;;;;;;;;;;5009563;28;20096;-69
2022/12/02 12:25:31;;;;;;;14.77;10.93;;;;;;;;;;5009988;28;20042;-68
2022/12/02 12:27:59;;;;;;;18.67;10.97;;;;;;;;;;5008008;28;20481;-67
2022/12/02 12:30:25;;;;;;;16.95;9.93;;;;;;;;;;5011613;28;20107;-70
2022/12/02 12:32:52;;;;;;;14.25;9.52;;;;;;;;;;5028934;28;20393;-69
2022/12/02 12:35:19;;;;;;;16.20;9.35;;;;;;;;;;5013806;28;20092;-70
2022/12/02 12:37:46;;;;;;;15.65;9.43;;;;;;;;;;5013399;28;20046;-70
2022/12/02 12:40:13;;;;;;;13.43;8.52;;;;;;;;;;5014002;28;20524;-68
2022/12/02 12:42:39;;;;;;;13.30;8.88;;;;;;;;;;5016029;28;20508;-69
2022/12/02 12:45:06;;;;;;;11.85;7.82;;;;;;;;;;5010096;28;20124;-67
2022/12/02 12:47:33;;;;;;;17.25;10.35;;;;;;;;;;5014492;28;20045;-69
2022/12/02 12:50:00;;;;;;;13.70;10.88;;;;;;;;;;5013906;28;20053;-65
2022/12/02 12:52:27;;;;;;;13.57;10.27;;;;;;;;;;5012734;28;20046;-67
2022/12/02 12:54:54;;;;;;;13.95;9.45;;;;;;;;;;5013121;28;20053;-66
2022/12/02 12:57:21;;;;;;;13.05;8.65;;;;;;;;;;5012779;28;20046;-72
2022/12/02 12:59:47;;;;;;;12.73;8.75;;;;;;;;;;5013109;28;20050;-68
2022/12/02 13:02:15;;;;;;;12.50;9.18;;;;;;;;;;5011074;28;20046;-66
2022/12/02 13:04:41;;;;;;;13.52;8.35;;;;;;;;;;5012842;28;20045;-67
2022/12/02 13:07:08;;;;;;;12.05;8.23;;;;;;;;;;5012992;28;20046;-68
2022/12/02 13:09:35;;;;;;;12.95;9.27;;;;;;;;;;5012513;28;20104;-68
2022/12/02 13:12:02;;;;;;;14.60;8.80;;;;;;;;;;5013332;28;20414;-72
2022/12/02 13:14:35;;;;;;;14.73;8.77;;;;;;;;;;5012819;28;20493;-68
2022/12/02 13:17:01;;;;;;;13.85;8.75;;;;;;;;;;5009500;28;20053;-67
2022/12/02 13:19:28;;;;;;;12.98;8.90;;;;;;;;;;5010413;28;20107;-67
2022/12/02 13:21:55;;;;;;;14.35;9.13;;;;;;;;;;5012748;28;20057;-66
2022/12/02 13:24:23;;;;;;;12.85;9.27;;;;;;;;;;5011628;28;20049;-67
2022/12/02 13:26:50;;;;;;;13.77;8.48;;;;;;;;;;5012913;28;20050;-68
2022/12/02 13:29:17;;;;;;;13.68;8.85;;;;;;;;;;5013181;28;20049;-69
2022/12/02 13:31:44;;;;;;;12.07;8.00;;;;;;;;;;5012650;28;20050;-67
2022/12/02 13:34:11;;;;;;;12.27;8.77;;;;;;;;;;5011332;28;20053;-68
2022/12/02 13:36:38;;;;;;;11.15;8.52;;;;;;;;;;5012108;28;20501;-67
2022/12/02 13:39:10;;;;;;;14.60;8.55;;;;;;;;;;5013186;28;20104;-68
2022/12/02 13:41:37;;;;;;;16.17;9.80;;;;;;;;;;5026143;28;20049;-68
2022/12/02 13:44:05;;;;;;;14.77;8.80;;;;;;;;;;5013783;28;20052;-67
2022/12/02 13:46:32;;;;;;;13.57;9.80;;;;;;;;;;5011938;28;20061;-66
2022/12/02 13:49:00;;;;;;;14.32;8.48;;;;;;;;;;5012162;28;20570;-67
2022/12/02 13:51:27;;;;;;;14.38;9.65;;;;;;;;;;5010039;28;20062;-67
2022/12/02 13:53:54;;;;;;;16.83;10.27;;;;;;;;;;5012472;28;20050;-68
2022/12/02 13:56:25;;;;;;;12.77;9.15;;;;;;;;;;5009365;28;20050;-68
2022/12/02 13:58:51;;;;;;;15.10;9.48;;;;;;;;;;5011935;28;20050;-68
2022/12/02 14:01:18;;;;;;;13.90;9.38;;;;;;;;;;5009925;28;20057;-66
2022/12/02 14:03:45;;;;;;;12.43;9.00;;;;;;;;;;5011519;28;20049;-68
2022/12/02 14:06:13;;;;;;;15.98;9.15;;;;;;;;;;5012050;28;20046;-68
2022/12/02 14:08:42;;;;;;;13.13;8.52;;;;;;;;;;5011011;28;20081;-66
2022/12/02 14:11:13;;;;;;;14.10;9.45;;;;;;;;;;5009402;28;20122;-66
2022/12/02 14:13:43;;;;;;;13.32;9.27;;;;;;;;;;5011303;28;20057;-66
2022/12/02 14:16:10;;;;;;;16.58;10.48;;;;;;;;;;5011454;28;20054;-68
2022/12/02 14:18:38;;;;;;;18.45;11.93;;;;;;;;;;5011466;28;20049;-67
2022/12/02 14:21:05;;;;;;;15.98;10.02;;;;;;;;;;5026743;28;20500;-66
2022/12/02 14:23:32;;;;;;;16.88;10.50;;;;;;;;;;5008034;28;20053;-72
2022/12/02 14:25:59;;;;;;;15.73;11.35;;;;;;;;;;5011308;28;20085;-71
2022/12/02 14:28:30;;;;;;;17.20;11.25;;;;;;;;;;5011776;28;20046;-73
2022/12/02 14:30:57;;;;;;;16.45;11.13;;;;;;;;;;5007981;28;20524;-71
2022/12/02 14:33:25;;;;;;;18.95;13.02;;;;;;;;;;5011443;28;20576;-70
2022/12/02 14:36:13;;;;;;;19.20;12.65;;;;;;;;;;5022784;28;20060;-67
2022/12/02 14:38:43;;;;;;;21.85;12.95;;;;;;;;;;5011182;28;20541;-70